»·PEaware :: DAL213A KEGE-KTEX

DAL213A :: KEGE-KTEX

FLIGHT INFORMATION

Flight Status: Arrived
Operator:
Delta Air Lines
More flights by this operator :: More flights under this callsign
Pilot: Nicolas L. (9332)
Aircraft: BOEING 737-800
(B738)
More flights by this aircraft type
Origin: KEGE Eagle Co Regl
United States
Destination: KTEX Telluride Regl
United States
More flights between these airports :: More routes between these airports
Route: +GYPSM6 RLG ETL
File this flight plan on PilotEdge
Remarks: Live Streaming on Twitch "DAL213" and YT
Altitude:
(Current/Filed)
22,000ft
Speed:
(Current/Filed)
400kts
Departed: 11-Oct-18 08:45 PM
Arrived: 11-Oct-18 09:15 PM
Distance/Time
Traveled:
111nm/0:30
Distance/Time
To Go:
Arrived

Flight Plot

Page will automatically refresh every two minutes.

Flight plan parsing failed; only flown route is shown


Map Options




Map Legend


Flown Route
Filed Route
Departure Airport
Arrival Airport
Navaid (VOR, NDB)
Fix

Horizontal Profiles

Position Reports

Time Latitude Longitude Heading Altitude Ground
Speed
11-Oct-18 20:18 39.640592 -106.915458 171 6544ft 0kts
11-Oct-18 20:19 39.640592 -106.915458 171 6544ft 0kts
11-Oct-18 20:20 39.640592 -106.915458 171 6544ft 0kts
11-Oct-18 20:21 39.640592 -106.915458 171 6544ft 0kts
11-Oct-18 20:22 39.640592 -106.915458 171 6544ft 0kts
11-Oct-18 20:23 39.640592 -106.915458 171 6544ft 0kts
11-Oct-18 20:24 39.640592 -106.915458 171 6544ft 0kts
11-Oct-18 20:25 39.640592 -106.915458 171 6544ft 0kts
11-Oct-18 20:26 39.640592 -106.915458 171 6544ft 0kts
11-Oct-18 20:27 39.640592 -106.915458 171 6544ft 0kts
11-Oct-18 20:28 39.640592 -106.915458 171 6544ft 0kts
11-Oct-18 20:29 39.640592 -106.915458 171 6544ft 0kts
11-Oct-18 20:30 39.640592 -106.915458 171 6544ft 0kts
11-Oct-18 20:31 39.640592 -106.915458 171 6544ft 0kts
11-Oct-18 20:32 39.640592 -106.915458 171 6544ft 0kts
11-Oct-18 20:33 39.640592 -106.915458 171 6544ft 0kts
11-Oct-18 20:34 39.640592 -106.915458 171 6544ft 0kts
11-Oct-18 20:35 39.640592 -106.915458 171 6544ft 0kts
11-Oct-18 20:36 39.640592 -106.915458 171 6544ft 0kts
11-Oct-18 20:37 39.640592 -106.915458 171 6544ft 0kts
11-Oct-18 20:38 39.640592 -106.915458 171 6544ft 0kts
11-Oct-18 20:39 39.640627 -106.915465 171 6544ft 1kts
11-Oct-18 20:40 39.641149 -106.915934 116 6544ft 0kts
11-Oct-18 20:41 39.641149 -106.915934 116 6544ft 0kts
11-Oct-18 20:42 39.641149 -106.915934 116 6544ft 0kts
11-Oct-18 20:43 39.641877 -106.913958 83 6544ft 15kts
11-Oct-18 20:44 39.642416 -106.908898 81 6544ft 14kts
11-Oct-18 20:45 39.643128 -106.902467 81 6544ft 16kts
11-Oct-18 20:46 39.643430 -106.900334 47 6544ft 0kts
11-Oct-18 20:47 39.642483 -106.918531 261 6544ft 159kts
11-Oct-18 20:48 39.620464 -106.975020 229 9102ft 197kts
11-Oct-18 20:49 39.618849 -107.044273 320 11303ft 256kts
11-Oct-18 20:50 39.697168 -107.063370 331 13205ft 322kts
11-Oct-18 20:51 39.712122 -107.164702 234 15904ft 337kts
11-Oct-18 20:52 39.628787 -107.228864 212 19101ft 361kts
11-Oct-18 20:53 39.537469 -107.289105 213 21931ft 374kts
11-Oct-18 20:54 39.441166 -107.352873 212 22237ft 395kts
11-Oct-18 20:55 39.342865 -107.417749 212 22240ft 395kts
11-Oct-18 20:56 39.247557 -107.480403 212 21489ft 369kts
11-Oct-18 20:57 39.199029 -107.512286 212 20346ft 362kts
11-Oct-18 20:58 39.110250 -107.570437 212 18189ft 352kts
11-Oct-18 20:59 39.023428 -107.627156 211 17611ft 351kts
11-Oct-18 21:00 38.936877 -107.683260 210 17627ft 339kts
11-Oct-18 21:01 38.848635 -107.733925 206 16916ft 347kts
11-Oct-18 21:02 38.763181 -107.776884 206 17455ft 320kts
11-Oct-18 21:03 38.685017 -107.827664 212 17505ft 316kts
11-Oct-18 21:04 38.606369 -107.883091 211 17519ft 329kts
11-Oct-18 21:05 38.524580 -107.937985 211 17530ft 329kts
11-Oct-18 21:06 38.444428 -107.991357 212 17529ft 319kts
11-Oct-18 21:07 38.366613 -108.043174 211 17529ft 312kts
11-Oct-18 21:08 38.289394 -108.094757 212 17407ft 320kts
11-Oct-18 21:09 38.213092 -108.149994 211 15664ft 306kts
11-Oct-18 21:10 38.141626 -108.201013 216 14365ft 288kts
11-Oct-18 21:11 38.073764 -108.249641 208 13143ft 267kts
11-Oct-18 21:12 38.012016 -108.218347 111 11567ft 286kts
11-Oct-18 21:13 37.994990 -108.127507 103 11153ft 242kts
11-Oct-18 21:14 37.982863 -108.056970 97 10412ft 183kts
11-Oct-18 21:15 37.974069 -107.999184 111 9870ft 160kts
11-Oct-18 21:16 37.960796 -107.944127 99 9333ft 166kts
11-Oct-18 21:17 37.952859 -107.904248 104 9087ft 11kts
11-Oct-18 21:18 37.952434 -107.902111 100 9087ft 7kts
11-Oct-18 21:19 37.953565 -107.901198 359 9087ft 5kts
11-Oct-18 21:20 37.953677 -107.901197 0 9087ft 0kts
11-Oct-18 21:21 37.953677 -107.901197 0 9087ft 0kts
11-Oct-18 21:22 37.953677 -107.901197 0 9087ft 0kts

Navigation Log

Ident Type
Flight plan parsing failed, navigation log unavailable